createdAt,value
2022-12-07T00:01:06.878Z,16.50
2022-12-07T00:03:34.368Z,11.00
2022-12-07T00:06:03.046Z,11.50
2022-12-07T00:08:31.360Z,14.00
2022-12-07T00:11:03.880Z,12.50
2022-12-07T00:13:31.472Z,11.00
2022-12-07T00:16:02.066Z,10.75
2022-12-07T00:18:28.865Z,14.00
2022-12-07T00:21:01.088Z,12.25
2022-12-07T00:23:28.125Z,15.75
2022-12-07T00:25:54.861Z,13.50
2022-12-07T00:28:23.207Z,15.00
2022-12-07T00:30:49.981Z,15.75
2022-12-07T00:33:16.916Z,16.00
2022-12-07T00:35:43.645Z,15.00
2022-12-07T00:38:10.389Z,14.75
2022-12-07T00:40:37.266Z,13.00
2022-12-07T00:43:04.072Z,13.00
2022-12-07T00:45:32.446Z,12.50
2022-12-07T00:47:59.321Z,11.25
2022-12-07T00:50:26.201Z,11.00
2022-12-07T00:52:52.982Z,10.75
2022-12-07T00:55:19.759Z,13.00
2022-12-07T00:57:46.587Z,8.75
2022-12-07T01:00:14.214Z,11.50
2022-12-07T01:02:42.504Z,9.50
2022-12-07T01:05:09.621Z,10.25
2022-12-07T01:07:36.960Z,12.75
2022-12-07T01:10:04.997Z,9.75
2022-12-07T01:12:31.780Z,14.00
2022-12-07T01:14:58.517Z,12.00
2022-12-07T01:17:25.384Z,11.75
2022-12-07T01:19:53.498Z,13.25
2022-12-07T01:22:20.308Z,12.50
2022-12-07T01:24:47.171Z,7.00
2022-12-07T01:27:14.398Z,12.75
2022-12-07T01:29:41.295Z,14.00
2022-12-07T01:32:08.781Z,11.50
2022-12-07T01:34:35.752Z,12.00
2022-12-07T01:37:04.117Z,14.50
2022-12-07T01:39:31.174Z,14.00
2022-12-07T01:41:58.060Z,11.00
2022-12-07T01:44:28.018Z,11.00
2022-12-07T01:46:58.721Z,12.50
2022-12-07T01:49:36.079Z,13.50
2022-12-07T01:52:18.639Z,11.25
2022-12-07T01:54:50.596Z,12.50
2022-12-07T01:57:19.246Z,11.75
2022-12-07T01:59:49.486Z,11.00
2022-12-07T02:02:24.159Z,15.25
2022-12-07T02:04:53.673Z,13.50
2022-12-07T02:07:24.811Z,14.00
2022-12-07T02:09:51.734Z,12.75
2022-12-07T02:12:19.602Z,14.75
2022-12-07T02:14:46.526Z,15.75
2022-12-07T02:17:28.005Z,15.00
2022-12-07T02:20:20.358Z,15.00
2022-12-07T02:23:30.786Z,13.50
2022-12-07T02:26:28.141Z,14.25
2022-12-07T02:29:16.457Z,14.00
2022-12-07T02:31:55.995Z,14.75
2022-12-07T02:34:35.432Z,13.00
2022-12-07T02:37:18.227Z,14.50
2022-12-07T02:39:51.694Z,16.25
2022-12-07T02:42:28.228Z,13.25
2022-12-07T02:44:57.740Z,13.25
2022-12-07T02:47:27.830Z,14.75
2022-12-07T02:49:54.819Z,18.00
2022-12-07T02:52:22.233Z,15.75
2022-12-07T02:54:49.180Z,18.50
2022-12-07T02:57:38.984Z,13.50
2022-12-07T03:00:12.164Z,15.25
2022-12-07T03:02:54.659Z,14.25
2022-12-07T03:05:41.666Z,17.50
2022-12-07T03:08:20.069Z,21.75
2022-12-07T03:10:58.351Z,15.75
2022-12-07T03:13:34.468Z,17.25
2022-12-07T03:16:11.745Z,20.00
2022-12-07T03:18:47.788Z,13.00
2022-12-07T03:21:22.036Z,14.50
2022-12-07T03:23:56.747Z,14.25
2022-12-07T03:26:32.339Z,17.75
2022-12-07T03:29:07.454Z,15.00
2022-12-07T03:31:42.279Z,13.00
2022-12-07T03:34:17.283Z,16.25
2022-12-07T03:36:51.696Z,17.50
2022-12-07T03:39:29.907Z,19.25
2022-12-07T03:42:02.233Z,12.00
2022-12-07T03:44:30.023Z,16.75
2022-12-07T03:47:12.662Z,12.00
2022-12-07T03:49:49.879Z,20.25
2022-12-07T03:52:26.951Z,16.75
2022-12-07T03:55:01.503Z,16.75
2022-12-07T03:57:32.445Z,16.00
2022-12-07T04:00:00.583Z,15.25
2022-12-07T04:02:30.254Z,15.25
2022-12-07T04:04:57.948Z,17.00
2022-12-07T04:07:24.794Z,15.50
2022-12-07T04:09:51.957Z,12.00
2022-12-07T04:12:19.216Z,17.00
2022-12-07T04:14:46.156Z,13.75
2022-12-07T04:17:13.279Z,13.00
2022-12-07T04:19:41.912Z,14.25
2022-12-07T04:22:09.149Z,13.25
2022-12-07T04:24:36.305Z,16.00
2022-12-07T04:27:04.271Z,17.75
2022-12-07T04:29:31.417Z,17.25
2022-12-07T04:31:58.259Z,14.25
2022-12-07T04:34:25.602Z,16.25
2022-12-07T04:36:53.945Z,13.25
2022-12-07T04:39:24.254Z,16.00
2022-12-07T04:41:51.916Z,14.00
2022-12-07T04:44:19.987Z,14.50
2022-12-07T04:46:47.602Z,15.75
2022-12-07T04:49:15.897Z,13.75
2022-12-07T04:51:43.851Z,16.75
2022-12-07T04:54:12.790Z,12.75
2022-12-07T04:56:40.661Z,17.00
2022-12-07T04:59:08.022Z,18.25
2022-12-07T05:01:35.423Z,19.00
2022-12-07T05:04:02.520Z,12.75
2022-12-07T05:06:29.339Z,17.00
2022-12-07T05:08:56.657Z,17.25
2022-12-07T05:11:24.961Z,18.00
2022-12-07T05:13:51.939Z,17.00
2022-12-07T05:16:19.083Z,13.50
2022-12-07T05:18:46.451Z,17.25
2022-12-07T05:21:13.182Z,19.25
2022-12-07T05:23:39.981Z,20.00
2022-12-07T05:26:06.836Z,16.25
2022-12-07T05:28:34.990Z,11.50
2022-12-07T05:31:02.130Z,18.25
2022-12-07T05:33:29.352Z,20.50
2022-12-07T05:35:56.151Z,16.50
2022-12-07T05:38:22.916Z,13.00
2022-12-07T05:40:49.851Z,19.25
2022-12-07T05:43:16.688Z,14.50
2022-12-07T05:45:45.057Z,19.25
2022-12-07T05:48:11.886Z,17.00
2022-12-07T05:50:38.921Z,13.25
2022-12-07T05:53:05.831Z,15.75
2022-12-07T05:55:32.980Z,15.75
2022-12-07T05:57:59.735Z,15.75
2022-12-07T06:00:26.504Z,17.50
2022-12-07T06:02:54.960Z,15.00
2022-12-07T06:05:21.910Z,13.75
2022-12-07T06:07:48.914Z,17.25
2022-12-07T06:10:16.095Z,22.50
2022-12-07T06:12:43.591Z,15.50
2022-12-07T06:15:11.417Z,9.25
2022-12-07T06:17:38.179Z,18.75
2022-12-07T06:20:08.175Z,15.75
2022-12-07T06:22:34.950Z,21.75
2022-12-07T06:25:06.998Z,22.75
2022-12-07T06:27:35.503Z,36.67
2022-12-07T06:30:02.898Z,25.50
2022-12-07T06:32:30.021Z,31.00
2022-12-07T06:34:56.775Z,29.75
2022-12-07T06:37:25.115Z,29.75
2022-12-07T06:39:51.955Z,28.75
2022-12-07T06:42:18.740Z,24.00
2022-12-07T06:44:45.785Z,25.25
2022-12-07T06:47:39.442Z,30.25
2022-12-07T06:49:59.713Z,30.75
2022-12-07T06:52:28.092Z,27.00
2022-12-07T06:54:54.874Z,25.75
2022-12-07T06:57:21.966Z,25.00
2022-12-07T06:59:49.092Z,25.25
2022-12-07T07:02:16.263Z,19.50
2022-12-07T07:04:43.328Z,16.50
2022-12-07T07:07:10.144Z,22.75
2022-12-07T07:09:38.279Z,18.75
2022-12-07T07:12:05.314Z,16.75
2022-12-07T07:14:32.092Z,17.00
2022-12-07T07:16:59.010Z,19.50
2022-12-07T07:19:25.985Z,19.50
2022-12-07T07:21:52.739Z,21.50
2022-12-07T07:24:19.661Z,20.75
2022-12-07T07:26:47.788Z,20.25
2022-12-07T07:29:14.858Z,18.25
2022-12-07T07:31:41.677Z,15.50
2022-12-07T07:34:08.467Z,17.50
2022-12-07T07:36:35.427Z,14.50
2022-12-07T07:39:02.224Z,18.00
2022-12-07T07:41:29.122Z,16.00
2022-12-07T07:43:57.277Z,18.50
2022-12-07T07:46:24.621Z,18.00
2022-12-07T07:48:51.406Z,20.75
2022-12-07T07:51:18.385Z,23.50
2022-12-07T07:53:45.175Z,17.75
2022-12-07T07:56:11.908Z,17.75
2022-12-07T07:58:38.647Z,17.50
2022-12-07T08:01:08.702Z,16.75
2022-12-07T08:03:36.243Z,15.00
2022-12-07T08:06:03.868Z,15.50
2022-12-07T08:08:30.906Z,17.00
2022-12-07T08:10:58.003Z,17.75
2022-12-07T08:13:29.314Z,19.25
2022-12-07T08:15:57.931Z,18.00
2022-12-07T08:18:26.036Z,22.75
2022-12-07T08:20:53.165Z,23.00
2022-12-07T08:23:19.878Z,19.25
2022-12-07T08:25:46.864Z,20.75
2022-12-07T08:28:13.554Z,20.75
2022-12-07T08:30:40.295Z,20.75
2022-12-07T08:33:07.281Z,20.25
2022-12-07T08:35:35.616Z,21.75
2022-12-07T08:38:03.557Z,21.50
2022-12-07T08:40:31.127Z,28.00
2022-12-07T08:42:57.878Z,31.50
2022-12-07T08:45:27.571Z,27.00
2022-12-07T08:48:02.173Z,28.00
2022-12-07T08:50:29.443Z,19.75
2022-12-07T08:53:00.907Z,21.50
2022-12-07T08:55:29.724Z,20.00
2022-12-07T08:57:59.142Z,20.25
2022-12-07T09:00:26.367Z,17.25
2022-12-07T09:02:54.902Z,22.75
2022-12-07T09:05:22.086Z,19.25
2022-12-07T09:07:55.710Z,20.25
2022-12-07T09:10:24.286Z,20.25
2022-12-07T09:12:51.121Z,14.75
2022-12-07T09:15:18.250Z,15.00
2022-12-07T09:17:45.003Z,14.75
2022-12-07T09:20:13.167Z,14.50
2022-12-07T09:22:40.065Z,11.00
2022-12-07T09:25:08.010Z,36.00
2022-12-07T09:27:36.191Z,24.75
2022-12-07T09:30:03.810Z,16.50
2022-12-07T09:32:30.922Z,16.00
2022-12-07T09:34:57.736Z,16.25
2022-12-07T09:37:24.832Z,13.00
2022-12-07T09:39:51.712Z,7.50
2022-12-07T09:42:35.514Z,10.75
2022-12-07T09:45:08.699Z,14.50
2022-12-07T09:47:35.969Z,10.25
2022-12-07T09:50:12.971Z,10.75
2022-12-07T09:52:40.869Z,12.00
2022-12-07T09:55:13.497Z,11.00
2022-12-07T09:57:42.525Z,10.00
2022-12-07T10:00:16.988Z,14.00
2022-12-07T10:02:47.443Z,11.50
2022-12-07T10:05:24.064Z,10.25
2022-12-07T10:07:51.766Z,8.25
2022-12-07T10:10:26.377Z,7.00
2022-12-07T10:12:58.108Z,5.25
2022-12-07T10:15:47.847Z,7.50
2022-12-07T10:18:32.229Z,10.00
2022-12-07T10:21:10.596Z,9.75
2022-12-07T10:23:40.654Z,10.50
2022-12-07T10:26:28.571Z,12.75
2022-12-07T10:28:57.198Z,21.00
2022-12-07T10:31:25.602Z,22.75
2022-12-07T10:33:55.084Z,24.75
2022-12-07T10:36:26.664Z,18.75
2022-12-07T10:39:00.769Z,9.50
2022-12-07T10:41:28.567Z,10.25
2022-12-07T10:43:58.420Z,8.00
2022-12-07T10:46:58.704Z,10.75
2022-12-07T10:49:50.463Z,9.50
2022-12-07T10:52:43.769Z,10.00
2022-12-07T10:55:24.657Z,9.50
2022-12-07T10:58:16.989Z,9.00
2022-12-07T11:00:59.042Z,10.75
2022-12-07T11:03:45.543Z,8.25
2022-12-07T11:06:32.129Z,6.75
2022-12-07T11:09:59.523Z,10.25
2022-12-07T11:12:27.149Z,10.75
2022-12-07T11:15:05.196Z,8.50
2022-12-07T11:17:45.056Z,8.75
2022-12-07T11:20:35.746Z,11.25
2022-12-07T11:23:17.316Z,11.25
2022-12-07T11:25:57.581Z,9.25
2022-12-07T11:28:58.667Z,14.25
2022-12-07T11:31:38.616Z,12.50
2022-12-07T11:34:20.143Z,14.00
2022-12-07T11:36:54.710Z,13.00
2022-12-07T11:39:34.045Z,14.00
2022-12-07T11:42:07.442Z,9.00
2022-12-07T11:44:45.331Z,15.00
2022-12-07T11:47:21.064Z,15.75
2022-12-07T11:49:55.789Z,18.25
2022-12-07T11:52:40.633Z,16.50
2022-12-07T11:55:23.536Z,17.25
2022-12-07T11:58:02.230Z,15.50
2022-12-07T12:00:29.137Z,17.50
2022-12-07T12:03:04.924Z,20.00
2022-12-07T12:05:31.904Z,17.00
2022-12-07T12:11:22.394Z,17.75
2022-12-07T12:14:37.087Z,17.00
2022-12-07T12:17:46.757Z,17.75
2022-12-07T12:20:27.764Z,17.50
2022-12-07T12:23:08.203Z,16.50
2022-12-07T12:25:43.818Z,15.00
2022-12-07T12:28:27.687Z,23.00
2022-12-07T12:31:13.442Z,16.75
2022-12-07T12:33:46.624Z,19.00
2022-12-07T12:36:25.745Z,15.75
2022-12-07T12:39:13.441Z,15.75
2022-12-07T12:42:00.918Z,14.75
2022-12-07T12:45:06.660Z,35.50
2022-12-07T12:47:55.511Z,19.25
2022-12-07T12:50:30.335Z,14.00
2022-12-07T12:53:15.182Z,13.75
2022-12-07T12:56:24.646Z,8.25
2022-12-07T12:59:30.343Z,12.25
2022-12-07T13:02:21.271Z,14.50
2022-12-07T13:04:56.438Z,13.50
2022-12-07T13:07:56.066Z,13.00
2022-12-07T13:10:36.455Z,14.00
2022-12-07T13:13:31.864Z,13.75
2022-12-07T13:16:49.962Z,13.00
2022-12-07T13:20:00.366Z,9.50
2022-12-07T13:22:53.270Z,17.50
2022-12-07T13:25:34.657Z,15.50
2022-12-07T13:28:10.037Z,23.75
2022-12-07T13:30:51.344Z,34.25
2022-12-07T13:33:19.264Z,22.75
2022-12-07T13:35:46.086Z,22.25
2022-12-07T13:38:30.048Z,17.25
2022-12-07T13:41:06.399Z,17.25
2022-12-07T13:43:49.427Z,16.25
2022-12-07T13:46:26.676Z,17.00
2022-12-07T13:48:54.044Z,14.75
2022-12-07T13:51:25.551Z,17.75
2022-12-07T13:53:55.779Z,15.50
2022-12-07T13:56:36.625Z,9.75
2022-12-07T13:59:04.054Z,12.50
2022-12-07T14:01:33.522Z,13.75
2022-12-07T14:04:20.405Z,13.50
2022-12-07T14:06:52.036Z,15.00
2022-12-07T14:09:22.320Z,14.50
2022-12-07T14:11:53.397Z,13.25
2022-12-07T14:14:24.182Z,17.50
2022-12-07T14:17:03.244Z,16.00
2022-12-07T14:19:48.745Z,15.00
2022-12-07T14:22:28.096Z,17.25
2022-12-07T14:25:20.827Z,18.25
2022-12-07T14:27:57.502Z,21.75
2022-12-07T14:30:28.242Z,24.25
2022-12-07T14:33:01.055Z,22.00
2022-12-07T14:35:28.494Z,29.25
2022-12-07T14:37:55.551Z,25.00
2022-12-07T14:40:25.281Z,21.75
2022-12-07T14:42:58.015Z,27.25
2022-12-07T14:45:24.771Z,24.75
2022-12-07T14:53:40.129Z,26.75
2022-12-07T14:56:07.881Z,30.00
2022-12-07T14:58:34.967Z,29.00
2022-12-07T15:01:01.855Z,23.50
2022-12-07T15:03:28.846Z,22.50
2022-12-07T15:05:57.148Z,21.00
2022-12-07T15:08:24.461Z,23.75
2022-12-07T15:10:51.324Z,23.00
2022-12-07T15:13:18.122Z,26.25
2022-12-07T15:15:46.049Z,28.25
2022-12-07T15:18:12.802Z,26.75
2022-12-07T15:20:39.851Z,26.50
2022-12-07T15:23:08.150Z,25.50
2022-12-07T15:25:34.976Z,22.50
2022-12-07T15:28:01.787Z,30.25
2022-12-07T15:30:28.544Z,29.50
2022-12-07T15:32:55.421Z,30.25
2022-12-07T15:35:22.234Z,28.50
2022-12-07T15:37:49.271Z,27.50
2022-12-07T15:40:17.771Z,27.25
2022-12-07T15:42:44.589Z,22.00
2022-12-07T15:45:12.334Z,26.50
2022-12-07T15:48:19.989Z,21.25
2022-12-07T15:50:29.228Z,20.25
2022-12-07T15:52:55.969Z,22.50
2022-12-07T15:55:24.300Z,30.25
2022-12-07T15:57:51.313Z,26.25
2022-12-07T16:00:20.197Z,27.75
2022-12-07T16:02:47.243Z,30.00
2022-12-07T16:05:14.070Z,21.00
2022-12-07T16:07:41.658Z,24.75
2022-12-07T16:10:09.865Z,27.50
2022-12-07T16:12:37.953Z,23.00
2022-12-07T16:15:06.356Z,24.50
2022-12-07T16:17:33.647Z,23.75
2022-12-07T16:20:00.519Z,23.75
2022-12-07T16:22:27.427Z,26.00
2022-12-07T16:24:54.189Z,24.75
2022-12-07T16:27:20.950Z,23.00
2022-12-07T16:29:49.014Z,22.00
2022-12-07T16:32:15.819Z,21.25
2022-12-07T16:34:42.609Z,21.00
2022-12-07T16:37:09.398Z,23.25
2022-12-07T16:39:36.412Z,22.75
2022-12-07T16:42:05.186Z,25.75
2022-12-07T16:44:32.002Z,23.00
2022-12-07T16:47:00.821Z,23.25
2022-12-07T16:49:27.662Z,25.25
2022-12-07T16:52:18.156Z,20.25
2022-12-07T16:54:41.857Z,37.50
2022-12-07T16:57:08.879Z,36.75
2022-12-07T16:59:35.716Z,24.50
2022-12-07T17:02:04.138Z,25.00
2022-12-07T17:04:31.222Z,21.75
2022-12-07T17:06:58.302Z,23.25
2022-12-07T17:09:25.173Z,23.00
2022-12-07T17:11:52.546Z,13.25
2022-12-07T17:14:19.524Z,24.75
2022-12-07T17:16:46.720Z,23.50
2022-12-07T17:19:17.566Z,21.75
2022-12-07T17:21:45.191Z,18.25
2022-12-07T17:24:16.311Z,22.50
2022-12-07T17:26:45.110Z,22.00
2022-12-07T17:29:15.125Z,23.25
2022-12-07T17:31:47.743Z,23.00
2022-12-07T17:34:19.749Z,22.75
2022-12-07T17:36:47.498Z,20.75
2022-12-07T17:39:17.294Z,29.00
2022-12-07T17:41:44.968Z,19.75
2022-12-07T17:44:14.428Z,29.00
2022-12-07T17:46:41.948Z,29.50
2022-12-07T17:49:08.985Z,28.50
2022-12-07T17:51:37.219Z,19.75
2022-12-07T17:54:04.268Z,25.50
2022-12-07T17:56:31.102Z,31.50
2022-12-07T17:58:58.152Z,34.33
2022-12-07T18:01:27.536Z,32.25
2022-12-07T18:03:56.711Z,34.50
2022-12-07T18:06:24.047Z,28.75
2022-12-07T18:08:52.332Z,29.50
2022-12-07T18:11:19.380Z,26.50
2022-12-07T18:13:46.678Z,26.25
2022-12-07T18:16:16.700Z,24.75
2022-12-07T18:18:49.212Z,29.00
2022-12-07T18:21:23.655Z,30.00
2022-12-07T18:23:56.095Z,32.50
2022-12-07T18:26:25.769Z,31.25
2022-12-07T18:28:52.724Z,29.00
2022-12-07T18:31:20.481Z,30.50
2022-12-07T18:33:48.528Z,26.00
2022-12-07T18:36:17.179Z,27.25
2022-12-07T18:38:44.718Z,28.25
2022-12-07T18:41:15.115Z,21.75
2022-12-07T18:43:42.923Z,28.00
2022-12-07T18:46:11.246Z,21.75
2022-12-07T18:48:38.029Z,25.25
2022-12-07T18:51:07.364Z,26.00
2022-12-07T18:53:35.353Z,22.75
2022-12-07T18:56:04.382Z,18.00
2022-12-07T18:58:33.405Z,24.00
2022-12-07T19:01:00.803Z,23.25
2022-12-07T19:03:32.977Z,25.75
2022-12-07T19:06:06.213Z,25.75
2022-12-07T19:08:33.601Z,26.75
2022-12-07T19:11:00.399Z,23.25
2022-12-07T19:13:27.196Z,26.75
2022-12-07T19:15:55.282Z,23.50
2022-12-07T19:18:22.140Z,23.25
2022-12-07T19:20:48.924Z,25.00
2022-12-07T19:23:15.920Z,36.00
2022-12-07T19:25:42.681Z,43.67
2022-12-07T19:28:09.907Z,31.00
2022-12-07T19:30:37.930Z,26.50
2022-12-07T19:33:06.263Z,39.33
2022-12-07T19:35:33.081Z,33.33
2022-12-07T19:37:59.880Z,38.33
2022-12-07T19:40:26.650Z,32.50
2022-12-07T19:42:53.771Z,26.25
2022-12-07T19:45:20.614Z,27.25
2022-12-07T19:47:47.490Z,31.75
2022-12-07T19:50:15.846Z,31.00
2022-12-07T19:52:42.656Z,27.50
2022-12-07T19:55:09.779Z,26.75
2022-12-07T19:57:36.805Z,24.75
2022-12-07T20:00:05.515Z,21.75
2022-12-07T20:02:32.567Z,24.75
2022-12-07T20:05:04.437Z,16.50
2022-12-07T20:07:34.619Z,20.25
2022-12-07T20:10:01.378Z,25.50
2022-12-07T20:12:28.175Z,24.50
2022-12-07T20:14:55.116Z,25.75
2022-12-07T20:17:22.037Z,27.50
2022-12-07T20:19:48.885Z,26.75
2022-12-07T20:22:15.667Z,25.00
2022-12-07T20:24:43.790Z,23.50
2022-12-07T20:27:10.582Z,25.25
2022-12-07T20:29:37.412Z,31.50
2022-12-07T20:32:05.180Z,25.00
2022-12-07T20:34:32.109Z,23.25
2022-12-07T20:36:58.885Z,26.50
2022-12-07T20:39:27.823Z,25.50
2022-12-07T20:41:56.049Z,24.50
2022-12-07T20:44:22.958Z,23.00
2022-12-07T20:46:50.140Z,19.00
2022-12-07T20:49:17.550Z,21.25
2022-12-07T20:51:45.459Z,19.50
2022-12-07T20:54:12.835Z,22.25
2022-12-07T20:56:40.184Z,22.00
2022-12-07T20:59:14.686Z,18.75
2022-12-07T21:01:41.803Z,20.00
2022-12-07T21:04:10.140Z,20.75
2022-12-07T21:06:36.978Z,20.75
2022-12-07T21:09:03.888Z,22.50
2022-12-07T21:11:32.348Z,17.00
2022-12-07T21:13:59.202Z,19.25
2022-12-07T21:16:30.755Z,17.00
2022-12-07T21:19:00.374Z,20.75
2022-12-07T21:21:27.408Z,20.00
2022-12-07T21:24:01.508Z,24.25
2022-12-07T21:26:29.988Z,20.00
2022-12-07T21:28:57.417Z,25.25
2022-12-07T21:31:24.765Z,23.75
2022-12-07T21:33:53.235Z,28.50
2022-12-07T21:36:23.240Z,28.00
2022-12-07T21:38:50.807Z,21.00
2022-12-07T21:45:34.808Z,21.25
2022-12-07T21:48:01.815Z,22.25
2022-12-07T21:50:32.469Z,17.50
2022-12-07T21:52:59.558Z,21.25
2022-12-07T21:55:26.689Z,19.00
2022-12-07T21:57:53.545Z,19.25
2022-12-07T22:00:20.855Z,16.75
2022-12-07T22:02:47.688Z,18.00
2022-12-07T22:05:14.526Z,19.00
2022-12-07T22:07:42.695Z,19.25
2022-12-07T22:10:09.979Z,16.00
2022-12-07T22:12:37.134Z,19.75
2022-12-07T22:15:05.015Z,15.75
2022-12-07T22:17:32.705Z,21.50
2022-12-07T22:19:59.526Z,21.25
2022-12-07T22:22:26.892Z,21.00
2022-12-07T22:24:54.996Z,17.00
2022-12-07T22:27:21.849Z,17.00
2022-12-07T22:29:48.865Z,19.25
2022-12-07T22:32:46.432Z,21.75
2022-12-07T22:35:03.773Z,16.50
2022-12-07T22:37:32.351Z,17.75
2022-12-07T22:40:00.722Z,18.75
2022-12-07T22:42:27.775Z,19.25
2022-12-07T22:44:54.549Z,18.75
2022-12-07T22:47:21.321Z,18.00
2022-12-07T22:49:48.111Z,16.00
2022-12-07T22:52:14.835Z,17.50
2022-12-07T22:54:41.610Z,18.75
2022-12-07T22:57:09.771Z,20.50
2022-12-07T22:59:36.575Z,22.50
2022-12-07T23:02:03.386Z,19.25
2022-12-07T23:04:30.265Z,21.00
2022-12-07T23:06:58.478Z,18.75
2022-12-07T23:09:25.349Z,19.75
2022-12-07T23:11:52.095Z,22.25
2022-12-07T23:14:25.990Z,23.75
2022-12-07T23:16:52.891Z,23.50
2022-12-07T23:19:19.849Z,21.75
2022-12-07T23:21:47.010Z,25.00
2022-12-07T23:24:15.489Z,24.25
2022-12-07T23:26:43.233Z,20.75
2022-12-07T23:29:15.857Z,35.33
2022-12-07T23:31:47.413Z,32.33
2022-12-07T23:34:14.420Z,24.67
2022-12-07T23:36:41.185Z,22.00
2022-12-07T23:39:09.524Z,30.00
2022-12-07T23:41:36.626Z,22.75
2022-12-07T23:44:03.973Z,24.00
2022-12-07T23:46:33.471Z,26.75
2022-12-07T23:49:05.119Z,23.00
2022-12-07T23:51:32.992Z,22.33
2022-12-07T23:54:01.133Z,17.33
2022-12-07T23:56:30.740Z,24.67
2022-12-07T23:58:58.510Z,19.67
